Terminal Aerodrome Forecast
Issued by NWS Green Bay, WI

Home | Current Version | Previous Version | Text Only | Print | Product List | Glossary Off
Versions: 1 2 3 4 5 6 7 8 9 10 11 12 13 14 15 16 17 18 19 20 21 22 23 24 25 26 27 28 29 30 31 32 33 34 35 36 37 38 39 40 41 42

995
FTUS43 KGRB 231145 AAA
TAFGRB
TAF AMD
KGRB 231145Z 2312/2412 22004KT 1/2SM FG OVC003
      TEMPO 2312/2314 3SM BR SCT003
     FM231500 32007KT P6SM SCT040 BKN100
     FM232000 36009KT P6SM VCTS BKN040CB
     FM240000 04008KT P6SM VCSH BKN035
     FM240300 03008KT P6SM SCT035
     FM240600 01007KT 5SM BR SCT005 OVC015
      TEMPO 2408/2412 2SM BR BKN005=

USA.gov is the U.S. government's official web portal to all federal, state and local government web resources and services.